sensor_id;sensor_type;location;lat;lon;timestamp;pressure;altitude;pressure_sealevel;temperature;humidity
46714;BME280;32445;51.376;10.874;2023-07-13T00:01:00;99241.50;;;22.28;37.76
46714;BME280;32445;51.376;10.874;2023-07-13T00:04:00;99238.25;;;22.24;38.27
46714;BME280;32445;51.376;10.874;2023-07-13T00:07:01;99238.59;;;22.20;38.50
46714;BME280;32445;51.376;10.874;2023-07-13T00:10:03;99242.44;;;22.16;38.62
46714;BME280;32445;51.376;10.874;2023-07-13T00:13:03;99247.97;;;22.12;39.38
46714;BME280;32445;51.376;10.874;2023-07-13T00:16:04;99238.59;;;22.08;38.87
46714;BME280;32445;51.376;10.874;2023-07-13T00:19:05;99240.63;;;22.05;38.71
46714;BME280;32445;51.376;10.874;2023-07-13T00:22:06;99239.09;;;22.02;38.98
46714;BME280;32445;51.376;10.874;2023-07-13T00:25:08;99242.94;;;21.98;38.79
46714;BME280;32445;51.376;10.874;2023-07-13T00:28:08;99250.25;;;21.94;39.00
46714;BME280;32445;51.376;10.874;2023-07-13T00:31:11;99247.97;;;21.90;39.48
46714;BME280;32445;51.376;10.874;2023-07-13T00:34:12;99260.56;;;21.86;39.60
46714;BME280;32445;51.376;10.874;2023-07-13T00:37:12;99259.13;;;21.82;39.29
46714;BME280;32445;51.376;10.874;2023-07-13T00:40:14;99262.09;;;21.77;39.75
46714;BME280;32445;51.376;10.874;2023-07-13T00:43:22;99270.41;;;21.73;39.70
46714;BME280;32445;51.376;10.874;2023-07-13T00:46:32;99277.72;;;21.69;39.68
46714;BME280;32445;51.376;10.874;2023-07-13T00:49:35;99280.69;;;21.65;39.87
46714;BME280;32445;51.376;10.874;2023-07-13T00:52:38;99280.09;;;21.61;39.73
46714;BME280;32445;51.376;10.874;2023-07-13T00:55:40;99281.16;;;21.58;39.97
46714;BME280;32445;51.376;10.874;2023-07-13T00:58:40;99273.47;;;21.55;39.80
46714;BME280;32445;51.376;10.874;2023-07-13T01:01:40;99268.44;;;21.52;40.09
46714;BME280;32445;51.376;10.874;2023-07-13T01:04:41;99275.50;;;21.52;39.95
46714;BME280;32445;51.376;10.874;2023-07-13T01:07:44;99269.59;;;21.48;40.23
46714;BME280;32445;51.376;10.874;2023-07-13T01:10:54;99267.19;;;21.45;40.98
46714;BME280;32445;51.376;10.874;2023-07-13T01:13:55;99267.19;;;21.45;40.49
46714;BME280;32445;51.376;10.874;2023-07-13T01:16:55;99263.91;;;21.41;40.51
46714;BME280;32445;51.376;10.874;2023-07-13T01:19:56;99269.56;;;21.37;40.72
46714;BME280;32445;51.376;10.874;2023-07-13T01:22:57;99268.81;;;21.35;40.29
46714;BME280;32445;51.376;10.874;2023-07-13T01:25:58;99263.75;;;21.32;40.42
46714;BME280;32445;51.376;10.874;2023-07-13T01:28:58;99266.41;;;21.32;39.59
46714;BME280;32445;51.376;10.874;2023-07-13T01:31:59;99262.09;;;21.31;40.26
46714;BME280;32445;51.376;10.874;2023-07-13T01:35:00;99259.78;;;21.26;40.70
46714;BME280;32445;51.376;10.874;2023-07-13T01:38:00;99260.00;;;21.23;40.82
46714;BME280;32445;51.376;10.874;2023-07-13T01:41:02;99265.53;;;21.20;40.74
46714;BME280;32445;51.376;10.874;2023-07-13T01:44:03;99265.75;;;21.17;40.91
46714;BME280;32445;51.376;10.874;2023-07-13T01:47:03;99263.22;;;21.15;41.21
46714;BME280;32445;51.376;10.874;2023-07-13T01:50:04;99263.47;;;21.12;41.01
46714;BME280;32445;51.376;10.874;2023-07-13T01:53:05;99260.19;;;21.08;41.09
46714;BME280;32445;51.376;10.874;2023-07-13T01:56:06;99266.75;;;21.03;41.00
46714;BME280;32445;51.376;10.874;2023-07-13T01:59:06;99259.91;;;21.00;40.83
46714;BME280;32445;51.376;10.874;2023-07-13T02:02:07;99254.03;;;20.97;40.83
46714;BME280;32445;51.376;10.874;2023-07-13T02:05:07;99256.03;;;20.93;41.03
46714;BME280;32445;51.376;10.874;2023-07-13T02:08:08;99258.19;;;20.88;40.94
46714;BME280;32445;51.376;10.874;2023-07-13T02:11:08;99253.97;;;20.85;40.92
46714;BME280;32445;51.376;10.874;2023-07-13T02:14:09;99254.19;;;20.82;40.91
46714;BME280;32445;51.376;10.874;2023-07-13T02:17:09;99247.47;;;20.78;41.12
46714;BME280;32445;51.376;10.874;2023-07-13T02:20:10;99250.31;;;20.75;41.13
46714;BME280;32445;51.376;10.874;2023-07-13T02:23:11;99244.53;;;20.70;40.88
46714;BME280;32445;51.376;10.874;2023-07-13T02:26:11;99253.56;;;20.66;41.36
46714;BME280;32445;51.376;10.874;2023-07-13T02:29:12;99246.84;;;20.62;41.22
46714;BME280;32445;51.376;10.874;2023-07-13T02:32:12;99252.44;;;20.57;41.15
46714;BME280;32445;51.376;10.874;2023-07-13T02:35:13;99246.56;;;20.53;41.21
46714;BME280;32445;51.376;10.874;2023-07-13T02:38:13;99237.19;;;20.49;41.49
46714;BME280;32445;51.376;10.874;2023-07-13T02:41:13;99245.44;;;20.45;41.29
46714;BME280;32445;51.376;10.874;2023-07-13T02:44:14;99242.16;;;20.41;41.57
46714;BME280;32445;51.376;10.874;2023-07-13T02:47:15;99253.88;;;20.37;41.32
46714;BME280;32445;51.376;10.874;2023-07-13T02:50:15;99256.84;;;20.32;41.33
46714;BME280;32445;51.376;10.874;2023-07-13T02:53:15;99261.47;;;20.29;41.54
46714;BME280;32445;51.376;10.874;2023-07-13T02:56:16;99255.59;;;20.25;41.59
46714;BME280;32445;51.376;10.874;2023-07-13T02:59:16;99251.47;;;20.21;41.71
46714;BME280;32445;51.376;10.874;2023-07-13T03:02:17;99267.63;;;20.16;41.86
46714;BME280;32445;51.376;10.874;2023-07-13T03:05:17;99265.31;;;20.12;42.09
46714;BME280;32445;51.376;10.874;2023-07-13T03:08:18;99260.22;;;20.09;42.04
46714;BME280;32445;51.376;10.874;2023-07-13T03:11:19;99262.38;;;20.03;42.04
46714;BME280;32445;51.376;10.874;2023-07-13T03:14:21;99252.03;;;20.00;42.25
46714;BME280;32445;51.376;10.874;2023-07-13T03:17:22;99265.50;;;19.96;42.04
46714;BME280;32445;51.376;10.874;2023-07-13T03:20:22;99264.06;;;19.92;42.27
46714;BME280;32445;51.376;10.874;2023-07-13T03:23:23;99273.00;;;19.89;42.40
46714;BME280;32445;51.376;10.874;2023-07-13T03:26:23;99275.97;;;19.84;42.59
46714;BME280;32445;51.376;10.874;2023-07-13T03:29:24;99280.59;;;19.81;42.23
46714;BME280;32445;51.376;10.874;2023-07-13T03:32:24;99281.59;;;19.78;42.37
46714;BME280;32445;51.376;10.874;2023-07-13T03:35:24;99285.38;;;19.74;42.60
46714;BME280;32445;51.376;10.874;2023-07-13T03:38:25;99291.78;;;19.70;42.58
46714;BME280;32445;51.376;10.874;2023-07-13T03:41:26;99298.13;;;19.67;42.89
46714;BME280;32445;51.376;10.874;2023-07-13T03:44:27;99296.66;;;19.63;42.99
46714;BME280;32445;51.376;10.874;2023-07-13T03:47:27;99302.97;;;19.61;42.81
46714;BME280;32445;51.376;10.874;2023-07-13T03:50:28;99311.06;;;19.58;42.82
46714;BME280;32445;51.376;10.874;2023-07-13T03:53:28;99312.94;;;19.56;42.79
46714;BME280;32445;51.376;10.874;2023-07-13T03:56:29;99305.25;;;19.52;42.94
46714;BME280;32445;51.376;10.874;2023-07-13T03:59:30;99309.78;;;19.50;42.86
46714;BME280;32445;51.376;10.874;2023-07-13T04:02:31;99314.28;;;19.48;43.16
46714;BME280;32445;51.376;10.874;2023-07-13T04:05:31;99311.78;;;19.47;43.31
46714;BME280;32445;51.376;10.874;2023-07-13T04:08:34;99319.78;;;19.45;43.33
46714;BME280;32445;51.376;10.874;2023-07-13T04:11:34;99321.56;;;19.45;44.05
46714;BME280;32445;51.376;10.874;2023-07-13T04:14:37;99318.94;;;19.45;44.43
46714;BME280;32445;51.376;10.874;2023-07-13T04:17:37;99327.66;;;19.45;44.47
46714;BME280;32445;51.376;10.874;2023-07-13T04:20:37;99326.72;;;19.46;44.30
46714;BME280;32445;51.376;10.874;2023-07-13T04:23:38;99327.47;;;19.48;44.86
46714;BME280;32445;51.376;10.874;2023-07-13T04:26:39;99331.78;;;19.49;45.12
46714;BME280;32445;51.376;10.874;2023-07-13T04:29:40;99328.94;;;19.52;44.46
46714;BME280;32445;51.376;10.874;2023-07-13T04:32:40;99327.91;;;19.55;44.68
46714;BME280;32445;51.376;10.874;2023-07-13T04:35:40;99324.22;;;19.58;45.13
46714;BME280;32445;51.376;10.874;2023-07-13T04:38:41;99320.56;;;19.60;45.29
46714;BME280;32445;51.376;10.874;2023-07-13T04:41:41;99322.13;;;19.63;45.03
46714;BME280;32445;51.376;10.874;2023-07-13T04:44:42;99324.56;;;19.66;45.25
46714;BME280;32445;51.376;10.874;2023-07-13T04:47:42;99310.22;;;19.70;45.16
46714;BME280;32445;51.376;10.874;2023-07-13T04:50:42;99311.81;;;19.73;45.15
46714;BME280;32445;51.376;10.874;2023-07-13T04:53:43;99317.63;;;19.78;45.14
46714;BME280;32445;51.376;10.874;2023-07-13T04:56:43;99311.47;;;19.79;45.13
46714;BME280;32445;51.376;10.874;2023-07-13T04:59:44;99306.81;;;19.82;44.99
46714;BME280;32445;51.376;10.874;2023-07-13T05:02:44;99313.66;;;19.85;45.04
46714;BME280;32445;51.376;10.874;2023-07-13T05:06:00;99319.78;;;19.85;45.43
46714;BME280;32445;51.376;10.874;2023-07-13T05:09:01;99315.16;;;19.89;45.25
46714;BME280;32445;51.376;10.874;2023-07-13T05:12:01;99317.91;;;19.87;44.97
46714;BME280;32445;51.376;10.874;2023-07-13T05:15:02;99320.41;;;19.89;45.61
46714;BME280;32445;51.376;10.874;2023-07-13T05:18:03;99329.91;;;19.92;45.25
46714;BME280;32445;51.376;10.874;2023-07-13T05:21:09;99321.16;;;19.91;45.64
46714;BME280;32445;51.376;10.874;2023-07-13T05:24:10;99316.63;;;19.93;45.68
46714;BME280;32445;51.376;10.874;2023-07-13T05:27:10;99321.78;;;19.95;45.62
46714;BME280;32445;51.376;10.874;2023-07-13T05:30:11;99325.16;;;19.97;46.18
46714;BME280;32445;51.376;10.874;2023-07-13T05:33:12;99325.06;;;19.98;46.12
46714;BME280;32445;51.376;10.874;2023-07-13T05:36:12;99331.91;;;20.01;46.09
46714;BME280;32445;51.376;10.874;2023-07-13T05:39:13;99331.69;;;20.04;46.04
46714;BME280;32445;51.376;10.874;2023-07-13T05:42:13;99327.19;;;20.06;46.07
46714;BME280;32445;51.376;10.874;2023-07-13T05:45:14;99326.03;;;20.10;45.99
46714;BME280;32445;51.376;10.874;2023-07-13T05:48:14;99329.28;;;20.14;46.10
46714;BME280;32445;51.376;10.874;2023-07-13T05:51:14;99334.22;;;20.18;46.65
46714;BME280;32445;51.376;10.874;2023-07-13T05:54:15;99337.41;;;20.23;46.23
46714;BME280;32445;51.376;10.874;2023-07-13T05:57:15;99339.72;;;20.28;46.32
46714;BME280;32445;51.376;10.874;2023-07-13T06:00:16;99337.59;;;20.33;46.41
46714;BME280;32445;51.376;10.874;2023-07-13T06:03:16;99341.72;;;20.37;46.29
46714;BME280;32445;51.376;10.874;2023-07-13T06:06:17;99336.13;;;20.42;46.40
46714;BME280;32445;51.376;10.874;2023-07-13T06:09:17;99337.59;;;20.46;47.20
46714;BME280;32445;51.376;10.874;2023-07-13T06:12:17;99339.16;;;20.49;47.25
46714;BME280;32445;51.376;10.874;2023-07-13T06:15:18;99336.31;;;20.52;47.29
46714;BME280;32445;51.376;10.874;2023-07-13T06:18:18;99348.13;;;20.59;46.99
46714;BME280;32445;51.376;10.874;2023-07-13T06:21:20;99337.06;;;20.67;47.06
46714;BME280;32445;51.376;10.874;2023-07-13T06:24:21;99334.50;;;20.78;46.77
46714;BME280;32445;51.376;10.874;2023-07-13T06:27:22;99343.56;;;20.87;46.47
46714;BME280;32445;51.376;10.874;2023-07-13T06:30:22;99343.84;;;20.95;46.01
46714;BME280;32445;51.376;10.874;2023-07-13T06:33:23;99345.09;;;21.02;45.93
46714;BME280;32445;51.376;10.874;2023-07-13T06:36:23;99355.84;;;21.12;46.16
46714;BME280;32445;51.376;10.874;2023-07-13T06:39:24;99356.22;;;21.19;45.95
46714;BME280;32445;51.376;10.874;2023-07-13T06:42:24;99352.41;;;21.23;46.11
46714;BME280;32445;51.376;10.874;2023-07-13T06:45:24;99358.19;;;21.28;45.51
46714;BME280;32445;51.376;10.874;2023-07-13T06:48:25;99358.91;;;21.30;45.63
46714;BME280;32445;51.376;10.874;2023-07-13T06:51:25;99358.81;;;21.32;45.17
46714;BME280;32445;51.376;10.874;2023-07-13T06:54:26;99357.63;;;21.36;45.26
46714;BME280;32445;51.376;10.874;2023-07-13T06:57:26;99353.81;;;21.40;44.94
46714;BME280;32445;51.376;10.874;2023-07-13T07:00:27;99350.81;;;21.44;44.96
46714;BME280;32445;51.376;10.874;2023-07-13T07:03:28;99358.63;;;21.46;44.71
46714;BME280;32445;51.376;10.874;2023-07-13T07:06:29;99361.16;;;21.48;44.21
46714;BME280;32445;51.376;10.874;2023-07-13T07:09:29;99362.00;;;21.48;43.92
46714;BME280;32445;51.376;10.874;2023-07-13T07:12:31;99356.72;;;21.48;42.90
46714;BME280;32445;51.376;10.874;2023-07-13T07:15:31;99361.06;;;21.49;42.82
46714;BME280;32445;51.376;10.874;2023-07-13T07:18:32;99363.50;;;21.52;42.37
46714;BME280;32445;51.376;10.874;2023-07-13T07:21:32;99365.91;;;21.55;42.89
46714;BME280;32445;51.376;10.874;2023-07-13T07:24:33;99368.31;;;21.58;42.68
46714;BME280;32445;51.376;10.874;2023-07-13T07:27:33;99371.59;;;21.62;43.14
46714;BME280;32445;51.376;10.874;2023-07-13T07:30:34;99369.44;;;21.67;42.58
46714;BME280;32445;51.376;10.874;2023-07-13T07:33:35;99376.06;;;21.73;42.78
46714;BME280;32445;51.376;10.874;2023-07-13T07:36:35;99376.34;;;21.81;42.37
46714;BME280;32445;51.376;10.874;2023-07-13T07:39:35;99367.94;;;21.87;42.33
46714;BME280;32445;51.376;10.874;2023-07-13T07:42:36;99382.50;;;21.93;42.43
46714;BME280;32445;51.376;10.874;2023-07-13T07:45:37;99370.84;;;21.95;41.97
46714;BME280;32445;51.376;10.874;2023-07-13T07:48:37;99373.03;;;22.02;41.65
46714;BME280;32445;51.376;10.874;2023-07-13T07:51:38;99377.13;;;22.06;42.17
46714;BME280;32445;51.376;10.874;2023-07-13T07:54:38;99371.34;;;22.12;41.54
46714;BME280;32445;51.376;10.874;2023-07-13T07:57:39;99367.53;;;22.16;41.33
46714;BME280;32445;51.376;10.874;2023-07-13T08:00:39;99381.13;;;22.23;41.42
46714;BME280;32445;51.376;10.874;2023-07-13T08:03:40;99377.03;;;22.30;40.46
46714;BME280;32445;51.376;10.874;2023-07-13T08:06:40;99381.16;;;22.34;40.11
46714;BME280;32445;51.376;10.874;2023-07-13T08:09:41;99376.59;;;22.36;39.58
46714;BME280;32445;51.376;10.874;2023-07-13T08:12:41;99383.09;;;22.43;39.15
46714;BME280;32445;51.376;10.874;2023-07-13T08:15:41;99380.44;;;22.43;38.41
46714;BME280;32445;51.376;10.874;2023-07-13T08:18:42;99375.78;;;22.47;38.42
46714;BME280;32445;51.376;10.874;2023-07-13T08:21:42;99379.88;;;22.51;38.15
46714;BME280;32445;51.376;10.874;2023-07-13T08:24:43;99379.63;;;22.54;37.22
46714;BME280;32445;51.376;10.874;2023-07-13T08:27:43;99379.75;;;22.53;36.28
46714;BME280;32445;51.376;10.874;2023-07-13T08:30:45;99376.13;;;22.54;36.64
46714;BME280;32445;51.376;10.874;2023-07-13T08:33:48;99369.75;;;22.56;36.76
46714;BME280;32445;51.376;10.874;2023-07-13T08:36:49;99365.78;;;22.62;37.47
46714;BME280;32445;51.376;10.874;2023-07-13T08:39:49;99370.63;;;22.68;36.92
46714;BME280;32445;51.376;10.874;2023-07-13T08:42:54;99383.34;;;22.74;36.65
46714;BME280;32445;51.376;10.874;2023-07-13T08:49:20;99379.97;;;22.84;36.83
46714;BME280;32445;51.376;10.874;2023-07-13T08:52:35;99374.31;;;22.88;36.51
46714;BME280;32445;51.376;10.874;2023-07-13T08:55:37;99393.19;;;22.95;36.66
46714;BME280;32445;51.376;10.874;2023-07-13T08:58:39;99385.00;;;22.98;35.99
46714;BME280;32445;51.376;10.874;2023-07-13T09:02:20;99383.66;;;23.04;35.91
46714;BME280;32445;51.376;10.874;2023-07-13T09:05:40;99385.47;;;23.03;35.94
46714;BME280;32445;51.376;10.874;2023-07-13T09:12:09;99385.38;;;23.16;36.45
46714;BME280;32445;51.376;10.874;2023-07-13T09:15:24;99387.25;;;23.25;35.39
46714;BME280;32445;51.376;10.874;2023-07-13T09:18:38;99368.81;;;23.35;35.67
46714;BME280;32445;51.376;10.874;2023-07-13T09:21:42;99381.63;;;23.51;35.72
46714;BME280;32445;51.376;10.874;2023-07-13T09:24:53;99388.59;;;23.63;35.46
46714;BME280;32445;51.376;10.874;2023-07-13T09:27:59;99377.25;;;23.73;34.89
46714;BME280;32445;51.376;10.874;2023-07-13T09:31:17;99379.13;;;23.82;35.40
46714;BME280;32445;51.376;10.874;2023-07-13T09:34:19;99373.53;;;23.96;35.34
46714;BME280;32445;51.376;10.874;2023-07-13T09:37:29;99382.84;;;24.12;35.17
46714;BME280;32445;51.376;10.874;2023-07-13T09:40:39;99390.59;;;24.25;34.56
46714;BME280;32445;51.376;10.874;2023-07-13T09:47:20;99382.91;;;24.52;34.70
46714;BME280;32445;51.376;10.874;2023-07-13T09:50:23;99386.22;;;24.66;34.42
46714;BME280;32445;51.376;10.874;2023-07-13T09:53:23;99386.25;;;24.76;33.49
46714;BME280;32445;51.376;10.874;2023-07-13T09:56:27;99380.28;;;24.83;33.53
46714;BME280;32445;51.376;10.874;2023-07-13T09:59:35;99395.97;;;24.96;33.63
46714;BME280;32445;51.376;10.874;2023-07-13T10:02:39;99384.38;;;25.07;33.20
46714;BME280;32445;51.376;10.874;2023-07-13T10:05:45;99391.28;;;25.19;32.42
46714;BME280;32445;51.376;10.874;2023-07-13T10:08:46;99388.06;;;25.26;32.37
46714;BME280;32445;51.376;10.874;2023-07-13T10:11:49;99388.09;;;25.35;32.30
46714;BME280;32445;51.376;10.874;2023-07-13T10:14:54;99391.06;;;25.42;32.12
46714;BME280;32445;51.376;10.874;2023-07-13T10:17:55;99394.56;;;25.52;32.02
46714;BME280;32445;51.376;10.874;2023-07-13T10:21:28;99393.72;;;25.62;32.70
46714;BME280;32445;51.376;10.874;2023-07-13T10:24:32;99402.69;;;25.70;31.92
46714;BME280;32445;51.376;10.874;2023-07-13T10:27:35;99394.81;;;25.69;32.28
46714;BME280;32445;51.376;10.874;2023-07-13T10:30:39;99392.75;;;25.72;32.46
46714;BME280;32445;51.376;10.874;2023-07-13T10:33:41;99398.75;;;25.84;32.28
46714;BME280;32445;51.376;10.874;2023-07-13T10:36:46;99402.53;;;25.91;31.63
46714;BME280;32445;51.376;10.874;2023-07-13T10:39:47;99410.53;;;26.01;30.91
46714;BME280;32445;51.376;10.874;2023-07-13T10:42:50;99401.56;;;26.02;30.97
46714;BME280;32445;51.376;10.874;2023-07-13T10:45:52;99405.72;;;26.15;31.11
46714;BME280;32445;51.376;10.874;2023-07-13T10:49:03;99399.97;;;26.29;31.24
46714;BME280;32445;51.376;10.874;2023-07-13T10:52:05;99414.78;;;26.41;30.83
46714;BME280;32445;51.376;10.874;2023-07-13T10:55:32;99419.53;;;26.48;30.23
46714;BME280;32445;51.376;10.874;2023-07-13T10:58:35;99418.41;;;26.50;30.12
46714;BME280;32445;51.376;10.874;2023-07-13T11:04:56;99412.91;;;26.62;30.52
46714;BME280;32445;51.376;10.874;2023-07-13T11:08:16;99411.06;;;26.72;30.39
46714;BME280;32445;51.376;10.874;2023-07-13T11:14:36;99419.81;;;26.92;29.94
46714;BME280;32445;51.376;10.874;2023-07-13T11:17:49;99410.94;;;27.01;29.73
46714;BME280;32445;51.376;10.874;2023-07-13T11:20:49;99407.53;;;27.09;29.62
46714;BME280;32445;51.376;10.874;2023-07-13T11:24:14;99401.53;;;27.25;29.08
46714;BME280;32445;51.376;10.874;2023-07-13T11:27:42;99397.41;;;27.40;28.35
46714;BME280;32445;51.376;10.874;2023-07-13T11:31:00;99403.50;;;27.51;28.31
46714;BME280;32445;51.376;10.874;2023-07-13T11:34:01;99389.78;;;27.63;28.94
46714;BME280;32445;51.376;10.874;2023-07-13T11:37:02;99396.41;;;27.77;28.26
46714;BME280;32445;51.376;10.874;2023-07-13T11:40:03;99380.53;;;27.94;27.95
46714;BME280;32445;51.376;10.874;2023-07-13T11:43:06;99390.31;;;28.03;28.25
46714;BME280;32445;51.376;10.874;2023-07-13T11:46:22;99401.38;;;28.08;28.38
46714;BME280;32445;51.376;10.874;2023-07-13T11:49:25;99392.47;;;28.26;28.54
46714;BME280;32445;51.376;10.874;2023-07-13T11:52:34;99387.91;;;28.44;27.79
46714;BME280;32445;51.376;10.874;2023-07-13T11:55:37;99373.97;;;28.59;26.81
46714;BME280;32445;51.376;10.874;2023-07-13T11:58:38;99394.28;;;28.78;26.93
46714;BME280;32445;51.376;10.874;2023-07-13T12:01:45;99381.56;;;28.80;26.13
46714;BME280;32445;51.376;10.874;2023-07-13T12:04:46;99392.13;;;28.81;26.36
46714;BME280;32445;51.376;10.874;2023-07-13T12:07:48;99392.41;;;28.78;26.92
46714;BME280;32445;51.376;10.874;2023-07-13T12:10:57;99392.25;;;28.80;26.11
46714;BME280;32445;51.376;10.874;2023-07-13T12:13:57;99392.63;;;28.85;26.99
46714;BME280;32445;51.376;10.874;2023-07-13T12:16:58;99388.47;;;28.91;26.65
46714;BME280;32445;51.376;10.874;2023-07-13T12:19:58;99398.50;;;28.89;27.13
46714;BME280;32445;51.376;10.874;2023-07-13T12:22:58;99403.63;;;28.82;27.24
46714;BME280;32445;51.376;10.874;2023-07-13T12:26:00;99403.84;;;28.89;28.07
46714;BME280;32445;51.376;10.874;2023-07-13T12:29:05;99404.53;;;28.99;26.91
46714;BME280;32445;51.376;10.874;2023-07-13T12:32:09;99411.41;;;29.02;26.12
46714;BME280;32445;51.376;10.874;2023-07-13T12:35:15;99401.34;;;28.87;26.44
46714;BME280;32445;51.376;10.874;2023-07-13T12:38:16;99412.88;;;28.96;26.82
46714;BME280;32445;51.376;10.874;2023-07-13T12:41:17;99407.09;;;29.09;27.04
46714;BME280;32445;51.376;10.874;2023-07-13T12:44:25;99397.91;;;29.20;26.31
46714;BME280;32445;51.376;10.874;2023-07-13T12:47:28;99397.31;;;29.34;26.08
46714;BME280;32445;51.376;10.874;2023-07-13T12:50:40;99394.69;;;29.50;26.34
46714;BME280;32445;51.376;10.874;2023-07-13T12:53:49;99391.19;;;29.75;25.72
46714;BME280;32445;51.376;10.874;2023-07-13T12:56:52;99390.50;;;29.81;26.02
46714;BME280;32445;51.376;10.874;2023-07-13T12:59:54;99399.91;;;29.93;25.55
46714;BME280;32445;51.376;10.874;2023-07-13T13:02:55;99393.66;;;30.17;26.42
46714;BME280;32445;51.376;10.874;2023-07-13T13:06:22;99399.00;;;30.26;25.08
46714;BME280;32445;51.376;10.874;2023-07-13T13:09:23;99406.75;;;30.20;25.59
46714;BME280;32445;51.376;10.874;2023-07-13T13:12:23;99401.22;;;30.22;25.85
46714;BME280;32445;51.376;10.874;2023-07-13T13:15:27;99396.19;;;30.44;25.35
46714;BME280;32445;51.376;10.874;2023-07-13T13:18:27;99387.16;;;30.76;26.14
46714;BME280;32445;51.376;10.874;2023-07-13T13:21:29;99397.00;;;30.92;25.33
46714;BME280;32445;51.376;10.874;2023-07-13T13:24:29;99397.13;;;31.07;26.08
46714;BME280;32445;51.376;10.874;2023-07-13T13:27:30;99402.72;;;31.20;24.89
46714;BME280;32445;51.376;10.874;2023-07-13T13:30:30;99401.56;;;31.23;24.33
46714;BME280;32445;51.376;10.874;2023-07-13T13:33:31;99392.31;;;31.26;24.33
46714;BME280;32445;51.376;10.874;2023-07-13T13:36:31;99401.19;;;31.26;24.65
46714;BME280;32445;51.376;10.874;2023-07-13T13:39:35;99407.91;;;31.22;24.23
46714;BME280;32445;51.376;10.874;2023-07-13T13:42:36;99416.66;;;31.16;24.40
46714;BME280;32445;51.376;10.874;2023-07-13T13:45:37;99417.41;;;31.01;23.83
46714;BME280;32445;51.376;10.874;2023-07-13T13:48:38;99423.44;;;30.95;24.42
46714;BME280;32445;51.376;10.874;2023-07-13T13:51:40;99425.97;;;30.88;24.10
46714;BME280;32445;51.376;10.874;2023-07-13T13:54:40;99424.34;;;30.79;24.07
46714;BME280;32445;51.376;10.874;2023-07-13T13:57:40;99426.06;;;30.72;23.98
46714;BME280;32445;51.376;10.874;2023-07-13T14:00:41;99427.72;;;30.73;24.45
46714;BME280;32445;51.376;10.874;2023-07-13T14:03:45;99417.84;;;30.74;24.11
46714;BME280;32445;51.376;10.874;2023-07-13T14:06:46;99413.50;;;30.64;24.20
46714;BME280;32445;51.376;10.874;2023-07-13T14:09:46;99415.53;;;30.62;24.41
46714;BME280;32445;51.376;10.874;2023-07-13T14:12:50;99416.00;;;30.66;24.81
46714;BME280;32445;51.376;10.874;2023-07-13T14:15:52;99416.19;;;30.64;24.82
46714;BME280;32445;51.376;10.874;2023-07-13T14:18:53;99409.00;;;30.65;24.69
46714;BME280;32445;51.376;10.874;2023-07-13T14:21:54;99420.53;;;30.74;24.25
46714;BME280;32445;51.376;10.874;2023-07-13T14:24:54;99423.38;;;30.72;25.38
46714;BME280;32445;51.376;10.874;2023-07-13T14:27:58;99423.75;;;30.52;24.67
46714;BME280;32445;51.376;10.874;2023-07-13T14:31:08;99430.97;;;30.52;24.55
46714;BME280;32445;51.376;10.874;2023-07-13T14:34:10;99422.41;;;30.57;25.53
46714;BME280;32445;51.376;10.874;2023-07-13T14:37:14;99422.44;;;30.48;24.81
46714;BME280;32445;51.376;10.874;2023-07-13T14:40:21;99428.31;;;30.44;24.18
46714;BME280;32445;51.376;10.874;2023-07-13T14:43:24;99423.75;;;30.36;24.29
46714;BME280;32445;51.376;10.874;2023-07-13T14:46:30;99426.94;;;30.31;24.80
46714;BME280;32445;51.376;10.874;2023-07-13T14:49:34;99419.09;;;30.30;24.91
46714;BME280;32445;51.376;10.874;2023-07-13T14:52:35;99414.06;;;30.35;24.48
46714;BME280;32445;51.376;10.874;2023-07-13T14:55:35;99414.91;;;30.44;25.40
46714;BME280;32445;51.376;10.874;2023-07-13T14:58:36;99411.72;;;30.48;24.70
46714;BME280;32445;51.376;10.874;2023-07-13T15:01:36;99414.22;;;30.42;24.38
46714;BME280;32445;51.376;10.874;2023-07-13T15:04:37;99417.75;;;30.34;24.67
46714;BME280;32445;51.376;10.874;2023-07-13T15:07:37;99416.25;;;30.23;25.78
46714;BME280;32445;51.376;10.874;2023-07-13T15:10:38;99419.78;;;30.24;25.75
46714;BME280;32445;51.376;10.874;2023-07-13T15:13:39;99431.81;;;30.19;25.18
46714;BME280;32445;51.376;10.874;2023-07-13T15:16:40;99422.13;;;30.10;25.13
46714;BME280;32445;51.376;10.874;2023-07-13T15:19:41;99419.44;;;30.10;25.79
46714;BME280;32445;51.376;10.874;2023-07-13T15:22:42;99417.09;;;30.15;25.74
46714;BME280;32445;51.376;10.874;2023-07-13T15:25:43;99416.44;;;30.13;25.50
46714;BME280;32445;51.376;10.874;2023-07-13T15:28:45;99431.16;;;30.09;25.32
46714;BME280;32445;51.376;10.874;2023-07-13T15:31:46;99431.16;;;30.01;25.28
46714;BME280;32445;51.376;10.874;2023-07-13T15:34:46;99424.13;;;29.92;26.04
46714;BME280;32445;51.376;10.874;2023-07-13T15:37:47;99426.31;;;29.88;25.68
46714;BME280;32445;51.376;10.874;2023-07-13T15:40:49;99424.94;;;29.76;25.97
46714;BME280;32445;51.376;10.874;2023-07-13T15:43:52;99432.13;;;29.75;25.88
46714;BME280;32445;51.376;10.874;2023-07-13T15:46:53;99430.78;;;29.71;26.03
46714;BME280;32445;51.376;10.874;2023-07-13T15:49:55;99433.28;;;29.64;25.44
46714;BME280;32445;51.376;10.874;2023-07-13T15:52:58;99424.75;;;29.61;25.91
46714;BME280;32445;51.376;10.874;2023-07-13T15:55:59;99432.97;;;29.59;25.97
46714;BME280;32445;51.376;10.874;2023-07-13T15:58:59;99434.28;;;29.55;26.13
46714;BME280;32445;51.376;10.874;2023-07-13T16:01:59;99431.78;;;29.54;26.71
46714;BME280;32445;51.376;10.874;2023-07-13T16:05:01;99424.75;;;29.52;26.44
46714;BME280;32445;51.376;10.874;2023-07-13T16:08:01;99429.59;;;29.49;26.82
46714;BME280;32445;51.376;10.874;2023-07-13T16:11:02;99424.41;;;29.47;25.98